Time;durP1;ratioP1;P1;durP2;ratioP2;P2;SDS_P1;SDS_P2;PMS_P1;PMS_P2;Temp;Humidity;BMP_temperature;BMP_pressure;BME280_temperature;BME280_humidity;BME280_pressure;Samples;Min_cycle;Max_cycle;Signal;HPM_P1;HPM_P2
2020/12/12 00:00:07;;;;;;;55.3;38.0;;;;;;;3.9;85.7;98950.0;;;;
2020/12/12 00:01:07;;;;;;;55.3;38.0;;;;;;;4.0;85.7;98950.0;;;;
2020/12/12 00:03:07;;;;;;;55.3;38.0;;;;;;;3.9;85.9;98950.0;;;;
2020/12/12 00:04:07;;;;;;;55.3;38.0;;;;;;;4.0;86.0;98950.0;;;;
2020/12/12 00:06:07;;;;;;;55.3;38.0;;;;;;;3.9;85.9;98950.0;;;;
2020/12/12 00:08:07;;;;;;;55.3;38.0;;;;;;;4.0;85.8;98950.0;;;;
2020/12/12 00:13:08;;;;;;;55.3;38.0;;;;;;;4.1;85.6;98950.0;;;;
2020/12/12 00:18:07;;;;;;;59.9;38.5;;;;;;;4.0;85.5;98940.0;;;;
2020/12/12 00:21:07;;;;;;;59.9;38.5;;;;;;;3.9;86.0;98950.0;;;;
2020/12/12 00:22:07;;;;;;;59.9;38.5;;;;;;;4.0;85.9;98950.0;;;;
2020/12/12 00:25:09;;;;;;;59.9;38.5;;;;;;;4.1;85.7;98950.0;;;;
2020/12/12 00:30:07;;;;;;;59.9;38.5;;;;;;;4.2;85.7;98950.0;;;;
2020/12/12 00:32:08;;;;;;;59.9;38.5;;;;;;;4.1;85.4;98950.0;;;;
2020/12/12 00:33:07;;;;;;;59.9;38.5;;;;;;;4.0;85.8;98950.0;;;;
2020/12/12 00:34:08;;;;;;;59.9;38.5;;;;;;;3.9;86.0;98960.0;;;;
2020/12/12 00:36:07;;;;;;;59.9;38.5;;;;;;;4.0;86.3;98960.0;;;;
2020/12/12 00:37:07;;;;;;;59.9;38.5;;;;;;;4.1;86.2;98960.0;;;;
2020/12/12 00:39:08;;;;;;;59.9;38.5;;;;;;;4.2;86.0;98950.0;;;;
2020/12/12 00:41:08;;;;;;;59.9;38.5;;;;;;;4.1;85.5;98960.0;;;;
2020/12/12 00:42:07;;;;;;;59.9;38.5;;;;;;;4.2;85.6;98950.0;;;;
2020/12/12 00:46:07;;;;;;;59.9;38.5;;;;;;;4.1;85.7;98960.0;;;;
2020/12/12 00:48:07;;;;;;;58.2;35.0;;;;;;;4.2;85.8;98960.0;;;;
2020/12/12 00:49:08;;;;;;;58.2;35.0;;;;;;;4.1;85.7;98960.0;;;;
2020/12/12 00:50:07;;;;;;;58.2;35.0;;;;;;;4.2;85.9;98960.0;;;;
2020/12/12 00:52:07;;;;;;;58.2;35.0;;;;;;;4.1;85.9;98960.0;;;;
2020/12/12 00:54:07;;;;;;;58.2;35.0;;;;;;;4.2;85.9;98960.0;;;;
2020/12/12 01:01:08;;;;;;;58.2;35.0;;;;;;;4.3;86.1;98960.0;;;;
2020/12/12 01:03:07;;;;;;;58.2;35.0;;;;;;;4.2;85.7;98960.0;;;;
2020/12/12 01:06:09;;;;;;;58.2;35.0;;;;;;;4.3;86.0;98970.0;;;;
2020/12/12 01:08:07;;;;;;;58.2;35.0;;;;;;;4.4;85.4;98970.0;;;;
2020/12/12 01:09:07;;;;;;;58.2;35.0;;;;;;;4.3;85.5;98970.0;;;;
2020/12/12 01:10:07;;;;;;;58.2;35.0;;;;;;;4.4;85.4;98970.0;;;;
2020/12/12 01:15:07;;;;;;;58.2;35.0;;;;;;;4.3;85.4;98980.0;;;;
2020/12/12 01:16:08;;;;;;;58.2;35.0;;;;;;;4.4;85.5;98980.0;;;;
2020/12/12 01:17:07;;;;;;;58.2;35.0;;;;;;;4.3;85.5;98980.0;;;;
2020/12/12 01:18:07;;;;;;;55.8;34.0;;;;;;;4.4;85.2;98980.0;;;;
2020/12/12 01:21:08;;;;;;;55.8;34.0;;;;;;;4.3;85.6;98980.0;;;;
2020/12/12 01:24:07;;;;;;;55.8;34.0;;;;;;;4.4;85.8;98980.0;;;;
2020/12/12 01:25:07;;;;;;;55.8;34.0;;;;;;;4.5;85.5;98980.0;;;;
2020/12/12 01:26:08;;;;;;;55.8;34.0;;;;;;;4.3;85.5;98980.0;;;;
2020/12/12 01:28:07;;;;;;;55.8;34.0;;;;;;;4.4;85.5;98980.0;;;;
2020/12/12 01:29:07;;;;;;;55.8;34.0;;;;;;;4.5;85.5;98980.0;;;;
2020/12/12 01:31:10;;;;;;;55.8;34.0;;;;;;;4.4;85.4;98980.0;;;;
2020/12/12 01:34:07;;;;;;;55.8;34.0;;;;;;;4.3;85.5;98980.0;;;;
2020/12/12 01:36:07;;;;;;;55.8;34.0;;;;;;;4.4;85.8;98990.0;;;;
2020/12/12 01:38:07;;;;;;;55.8;34.0;;;;;;;4.3;85.7;98980.0;;;;
2020/12/12 01:40:07;;;;;;;55.8;34.0;;;;;;;4.4;85.7;98990.0;;;;
2020/12/12 01:41:07;;;;;;;55.8;34.0;;;;;;;4.3;85.7;98990.0;;;;
2020/12/12 01:42:07;;;;;;;55.8;34.0;;;;;;;4.4;85.8;98990.0;;;;
2020/12/12 01:43:08;;;;;;;55.8;34.0;;;;;;;4.3;85.6;98990.0;;;;
2020/12/12 01:46:07;;;;;;;55.8;34.0;;;;;;;4.4;86.0;98990.0;;;;
2020/12/12 01:50:08;;;;;;;66.2;35.9;;;;;;;4.5;85.7;98990.0;;;;
2020/12/12 01:53:07;;;;;;;66.2;35.9;;;;;;;4.4;85.4;98990.0;;;;
2020/12/12 01:55:07;;;;;;;66.2;35.9;;;;;;;4.3;85.6;98990.0;;;;
2020/12/12 01:56:07;;;;;;;66.2;35.9;;;;;;;4.2;86.1;99000.0;;;;
2020/12/12 02:01:10;;;;;;;66.2;35.9;;;;;;;4.3;86.5;99000.0;;;;
2020/12/12 02:05:12;;;;;;;66.2;35.9;;;;;;;4.4;86.4;99000.0;;;;
2020/12/12 02:08:10;;;;;;;66.2;35.9;;;;;;;4.5;85.8;99000.0;;;;
2020/12/12 02:09:07;;;;;;;66.2;35.9;;;;;;;4.4;85.8;99010.0;;;;
2020/12/12 02:10:07;;;;;;;66.2;35.9;;;;;;;4.5;85.7;99010.0;;;;
2020/12/12 02:12:08;;;;;;;66.2;35.9;;;;;;;4.6;85.6;99010.0;;;;
2020/12/12 02:13:09;;;;;;;66.2;35.9;;;;;;;4.5;85.3;99010.0;;;;
2020/12/12 02:15:07;;;;;;;66.2;35.9;;;;;;;4.3;85.9;99010.0;;;;
2020/12/12 02:18:18;;;;;;;69.6;36.6;;;;;;;4.4;86.4;99000.0;;;;
2020/12/12 02:21:07;;;;;;;69.6;36.6;;;;;;;4.5;86.1;99010.0;;;;
2020/12/12 02:24:08;;;;;;;69.6;36.6;;;;;;;4.6;85.7;99010.0;;;;
2020/12/12 02:25:07;;;;;;;69.6;36.6;;;;;;;4.5;85.6;99010.0;;;;
2020/12/12 02:27:08;;;;;;;69.6;36.6;;;;;;;4.6;85.8;99010.0;;;;
2020/12/12 02:28:13;;;;;;;69.6;36.6;;;;;;;4.5;85.6;99010.0;;;;
2020/12/12 02:34:07;;;;;;;69.6;36.6;;;;;;;4.4;85.8;99020.0;;;;
2020/12/12 02:35:08;;;;;;;69.6;36.6;;;;;;;4.5;86.0;99010.0;;;;
2020/12/12 02:36:08;;;;;;;69.6;36.6;;;;;;;4.6;85.7;99020.0;;;;
2020/12/12 02:38:08;;;;;;;69.6;36.6;;;;;;;4.5;85.5;99020.0;;;;
2020/12/12 02:39:10;;;;;;;69.6;36.6;;;;;;;4.6;85.5;99020.0;;;;
2020/12/12 02:40:09;;;;;;;69.6;36.6;;;;;;;4.5;85.6;99020.0;;;;
2020/12/12 02:41:07;;;;;;;69.6;36.6;;;;;;;4.6;85.6;99020.0;;;;
2020/12/12 02:42:07;;;;;;;69.6;36.6;;;;;;;4.7;85.6;99020.0;;;;
2020/12/12 02:44:07;;;;;;;69.6;36.6;;;;;;;4.8;84.9;99020.0;;;;
2020/12/12 02:45:09;;;;;;;69.6;36.6;;;;;;;4.7;85.0;99010.0;;;;
2020/12/12 02:47:07;;;;;;;69.6;36.6;;;;;;;4.6;85.3;99020.0;;;;
2020/12/12 02:48:07;;;;;;;55.5;32.1;;;;;;;4.7;85.3;99020.0;;;;
2020/12/12 02:50:11;;;;;;;55.5;32.1;;;;;;;4.6;85.4;99020.0;;;;
2020/12/12 02:51:07;;;;;;;55.5;32.1;;;;;;;4.7;85.5;99020.0;;;;
2020/12/12 02:52:07;;;;;;;55.5;32.1;;;;;;;4.6;85.3;99020.0;;;;
2020/12/12 02:53:08;;;;;;;55.5;32.1;;;;;;;4.7;85.4;99020.0;;;;
2020/12/12 02:55:10;;;;;;;55.5;32.1;;;;;;;4.6;85.2;99020.0;;;;
2020/12/12 02:57:07;;;;;;;55.5;32.1;;;;;;;4.5;85.5;99020.0;;;;
2020/12/12 02:59:07;;;;;;;55.5;32.1;;;;;;;4.6;85.7;99020.0;;;;
2020/12/12 03:01:08;;;;;;;55.5;32.1;;;;;;;4.7;85.5;99020.0;;;;
2020/12/12 03:03:07;;;;;;;55.5;32.1;;;;;;;4.6;85.5;99020.0;;;;
2020/12/12 03:05:09;;;;;;;55.5;32.1;;;;;;;4.7;85.6;99020.0;;;;
2020/12/12 03:06:07;;;;;;;55.5;32.1;;;;;;;4.6;85.8;99030.0;;;;
2020/12/12 03:07:07;;;;;;;55.5;32.1;;;;;;;4.7;85.6;99030.0;;;;
2020/12/12 03:10:07;;;;;;;55.5;32.1;;;;;;;4.6;85.4;99030.0;;;;
2020/12/12 03:11:07;;;;;;;55.5;32.1;;;;;;;4.7;85.5;99030.0;;;;
2020/12/12 03:12:07;;;;;;;55.5;32.1;;;;;;;4.8;85.5;99030.0;;;;
2020/12/12 03:13:07;;;;;;;55.5;32.1;;;;;;;4.6;85.6;99040.0;;;;
2020/12/12 03:14:07;;;;;;;55.5;32.1;;;;;;;4.8;85.6;99030.0;;;;
2020/12/12 03:15:10;;;;;;;55.5;32.1;;;;;;;4.7;85.3;99030.0;;;;
2020/12/12 03:17:09;;;;;;;50.4;30.4;;;;;;;4.8;85.4;99030.0;;;;
2020/12/12 03:19:07;;;;;;;50.4;30.4;;;;;;;4.9;85.2;99030.0;;;;
2020/12/12 03:20:07;;;;;;;50.4;30.4;;;;;;;4.8;85.0;99030.0;;;;
2020/12/12 03:22:07;;;;;;;50.4;30.4;;;;;;;4.7;85.0;99040.0;;;;
2020/12/12 03:23:07;;;;;;;50.4;30.4;;;;;;;4.8;85.1;99040.0;;;;
2020/12/12 03:24:07;;;;;;;50.4;30.4;;;;;;;4.7;85.2;99040.0;;;;
2020/12/12 03:26:07;;;;;;;50.4;30.4;;;;;;;4.8;85.1;99040.0;;;;
2020/12/12 03:28:08;;;;;;;50.4;30.4;;;;;;;4.9;84.9;99040.0;;;;
2020/12/12 03:30:07;;;;;;;50.4;30.4;;;;;;;4.8;84.8;99040.0;;;;
2020/12/12 03:34:07;;;;;;;50.4;30.4;;;;;;;4.9;85.1;99040.0;;;;
2020/12/12 03:35:07;;;;;;;50.4;30.4;;;;;;;4.8;85.1;99040.0;;;;
2020/12/12 03:43:07;;;;;;;50.4;30.4;;;;;;;4.9;85.1;99050.0;;;;
2020/12/12 03:44:07;;;;;;;50.4;30.4;;;;;;;4.8;85.1;99050.0;;;;
2020/12/12 03:45:07;;;;;;;50.4;30.4;;;;;;;4.7;85.5;99050.0;;;;
2020/12/12 03:46:07;;;;;;;50.4;30.4;;;;;;;4.8;85.5;99050.0;;;;
2020/12/12 03:53:07;;;;;;;51.7;29.3;;;;;;;4.7;85.4;99060.0;;;;
2020/12/12 03:54:07;;;;;;;51.7;29.3;;;;;;;4.8;85.5;99060.0;;;;
2020/12/12 03:58:07;;;;;;;51.7;29.3;;;;;;;4.9;85.5;99060.0;;;;
2020/12/12 04:00:07;;;;;;;51.7;29.3;;;;;;;5.0;85.2;99060.0;;;;
2020/12/12 04:01:08;;;;;;;51.7;29.3;;;;;;;4.8;85.0;99060.0;;;;
2020/12/12 04:02:07;;;;;;;51.7;29.3;;;;;;;4.9;85.0;99070.0;;;;
2020/12/12 04:03:07;;;;;;;51.7;29.3;;;;;;;4.8;85.5;99070.0;;;;
2020/12/12 04:11:07;;;;;;;51.7;29.3;;;;;;;4.9;85.6;99070.0;;;;
2020/12/12 04:12:07;;;;;;;51.7;29.3;;;;;;;5.0;85.5;99070.0;;;;
2020/12/12 04:13:07;;;;;;;51.7;29.3;;;;;;;4.9;85.3;99070.0;;;;
2020/12/12 04:16:07;;;;;;;51.7;29.3;;;;;;;4.8;85.5;99070.0;;;;
2020/12/12 04:18:07;;;;;;;66.3;34.4;;;;;;;4.9;85.8;99080.0;;;;
2020/12/12 04:19:07;;;;;;;66.3;34.4;;;;;;;4.8;85.8;99080.0;;;;
2020/12/12 04:23:07;;;;;;;66.3;34.4;;;;;;;4.9;85.7;99080.0;;;;
2020/12/12 04:26:08;;;;;;;66.3;34.4;;;;;;;4.8;85.7;99080.0;;;;
2020/12/12 04:33:07;;;;;;;66.3;34.4;;;;;;;4.9;86.0;99080.0;;;;
2020/12/12 04:36:07;;;;;;;66.3;34.4;;;;;;;5.0;85.7;99090.0;;;;
2020/12/12 04:37:07;;;;;;;66.3;34.4;;;;;;;4.9;85.5;99080.0;;;;
2020/12/12 04:39:07;;;;;;;66.3;34.4;;;;;;;5.0;85.5;99080.0;;;;
2020/12/12 04:41:07;;;;;;;66.3;34.4;;;;;;;5.1;85.3;99090.0;;;;
2020/12/12 04:43:08;;;;;;;66.3;34.4;;;;;;;5.0;85.3;99090.0;;;;
2020/12/12 04:52:07;;;;;;;82.2;36.6;;;;;;;4.9;85.8;99090.0;;;;
2020/12/12 04:53:14;;;;;;;82.2;36.6;;;;;;;5.1;85.7;99090.0;;;;
2020/12/12 04:55:08;;;;;;;82.2;36.6;;;;;;;5.0;85.6;99090.0;;;;
2020/12/12 05:00:10;;;;;;;82.2;36.6;;;;;;;5.2;85.5;99090.0;;;;
2020/12/12 05:01:08;;;;;;;82.2;36.6;;;;;;;5.1;85.5;99100.0;;;;
2020/12/12 05:06:07;;;;;;;82.2;36.6;;;;;;;5.0;85.8;99110.0;;;;
2020/12/12 05:07:08;;;;;;;82.2;36.6;;;;;;;5.1;85.6;99100.0;;;;
2020/12/12 05:08:08;;;;;;;82.2;36.6;;;;;;;5.2;85.6;99110.0;;;;
2020/12/12 05:09:07;;;;;;;82.2;36.6;;;;;;;5.1;85.5;99110.0;;;;
2020/12/12 05:13:12;;;;;;;82.2;36.6;;;;;;;5.0;85.7;99110.0;;;;
2020/12/12 05:15:07;;;;;;;82.2;36.6;;;;;;;5.1;85.8;99120.0;;;;
2020/12/12 05:16:07;;;;;;;82.2;36.6;;;;;;;5.0;85.9;99120.0;;;;
2020/12/12 05:17:08;;;;;;;90.3;37.6;;;;;;;5.1;85.9;99120.0;;;;
2020/12/12 05:19:08;;;;;;;90.3;37.6;;;;;;;5.2;85.6;99120.0;;;;
2020/12/12 05:23:11;;;;;;;90.3;37.6;;;;;;;5.1;85.5;99120.0;;;;
2020/12/12 05:25:07;;;;;;;90.3;37.6;;;;;;;5.0;85.8;99120.0;;;;
2020/12/12 05:26:09;;;;;;;90.3;37.6;;;;;;;5.1;85.9;99120.0;;;;
2020/12/12 05:27:08;;;;;;;90.3;37.6;;;;;;;5.0;86.2;99120.0;;;;
2020/12/12 05:28:10;;;;;;;90.3;37.6;;;;;;;5.1;86.1;99120.0;;;;
2020/12/12 05:29:07;;;;;;;90.3;37.6;;;;;;;5.2;85.8;99120.0;;;;
2020/12/12 05:33:09;;;;;;;90.3;37.6;;;;;;;5.1;85.8;99120.0;;;;
2020/12/12 05:35:07;;;;;;;90.3;37.6;;;;;;;5.2;85.7;99120.0;;;;
2020/12/12 05:38:09;;;;;;;90.3;37.6;;;;;;;5.3;85.7;99130.0;;;;
2020/12/12 05:39:10;;;;;;;90.3;37.6;;;;;;;5.1;85.7;99120.0;;;;
2020/12/12 05:40:07;;;;;;;90.3;37.6;;;;;;;5.2;85.8;99130.0;;;;
2020/12/12 05:43:09;;;;;;;90.3;37.6;;;;;;;5.3;85.7;99130.0;;;;
2020/12/12 05:44:08;;;;;;;90.3;37.6;;;;;;;5.2;85.7;99130.0;;;;
2020/12/12 05:45:07;;;;;;;90.3;37.6;;;;;;;5.3;85.7;99130.0;;;;
2020/12/12 05:46:07;;;;;;;90.3;37.6;;;;;;;5.2;85.8;99130.0;;;;
2020/12/12 05:51:08;;;;;;;103.3;41.7;;;;;;;5.3;85.8;99140.0;;;;
2020/12/12 05:52:07;;;;;;;103.3;41.7;;;;;;;5.2;85.9;99140.0;;;;
2020/12/12 05:53:07;;;;;;;103.3;41.7;;;;;;;5.1;85.9;99150.0;;;;
2020/12/12 05:54:08;;;;;;;103.3;41.7;;;;;;;5.2;85.8;99140.0;;;;
2020/12/12 06:00:07;;;;;;;103.3;41.7;;;;;;;5.3;85.7;99150.0;;;;
2020/12/12 06:02:13;;;;;;;103.3;41.7;;;;;;;5.4;85.7;99150.0;;;;
2020/12/12 06:03:20;;;;;;;103.3;41.7;;;;;;;5.3;85.6;99160.0;;;;
2020/12/12 06:05:18;;;;;;;103.3;41.7;;;;;;;5.2;85.8;99160.0;;;;
2020/12/12 06:07:15;;;;;;;103.3;41.7;;;;;;;5.3;86.1;99170.0;;;;
2020/12/12 06:13:07;;;;;;;103.3;41.7;;;;;;;5.4;85.8;99170.0;;;;
2020/12/12 06:14:08;;;;;;;103.3;41.7;;;;;;;5.3;85.8;99180.0;;;;
2020/12/12 06:15:13;;;;;;;103.3;41.7;;;;;;;5.4;85.8;99180.0;;;;
2020/12/12 06:20:08;;;;;;;132.7;44.3;;;;;;;5.5;85.9;99180.0;;;;
2020/12/12 06:21:08;;;;;;;132.7;44.3;;;;;;;5.4;85.8;99180.0;;;;
2020/12/12 06:22:07;;;;;;;132.7;44.3;;;;;;;5.5;85.8;99180.0;;;;
2020/12/12 06:23:08;;;;;;;132.7;44.3;;;;;;;5.4;85.8;99180.0;;;;
2020/12/12 06:24:10;;;;;;;132.7;44.3;;;;;;;5.2;85.9;99180.0;;;;
2020/12/12 06:25:12;;;;;;;132.7;44.3;;;;;;;5.3;86.0;99190.0;;;;
2020/12/12 06:26:08;;;;;;;132.7;44.3;;;;;;;5.4;86.1;99190.0;;;;
2020/12/12 06:30:11;;;;;;;132.7;44.3;;;;;;;5.5;85.7;99190.0;;;;
2020/12/12 06:31:10;;;;;;;132.7;44.3;;;;;;;5.3;85.7;99190.0;;;;
2020/12/12 06:32:13;;;;;;;132.7;44.3;;;;;;;5.5;85.8;99190.0;;;;
2020/12/12 06:34:08;;;;;;;132.7;44.3;;;;;;;5.4;85.8;99190.0;;;;
2020/12/12 06:36:25;;;;;;;132.7;44.3;;;;;;;5.5;85.8;99190.0;;;;
2020/12/12 06:39:18;;;;;;;132.7;44.3;;;;;;;5.4;85.8;99200.0;;;;
2020/12/12 06:42:27;;;;;;;132.7;44.3;;;;;;;5.5;86.2;99200.0;;;;
2020/12/12 06:43:27;;;;;;;132.7;44.3;;;;;;;5.6;86.2;99200.0;;;;
2020/12/12 06:44:07;;;;;;;132.7;44.3;;;;;;;5.5;85.8;99210.0;;;;
2020/12/12 06:46:07;;;;;;;124.3;44.3;;;;;;;5.6;86.1;99210.0;;;;
2020/12/12 06:47:08;;;;;;;124.3;44.3;;;;;;;5.5;85.9;99210.0;;;;
2020/12/12 06:49:08;;;;;;;124.3;44.3;;;;;;;5.6;86.0;99210.0;;;;
2020/12/12 06:50:09;;;;;;;124.3;44.3;;;;;;;5.5;86.0;99220.0;;;;
2020/12/12 06:51:07;;;;;;;124.3;44.3;;;;;;;5.6;85.9;99220.0;;;;
2020/12/12 06:52:07;;;;;;;124.3;44.3;;;;;;;5.5;86.0;99220.0;;;;
2020/12/12 06:53:16;;;;;;;124.3;44.3;;;;;;;5.6;86.0;99230.0;;;;
2020/12/12 06:55:10;;;;;;;124.3;44.3;;;;;;;5.5;85.9;99220.0;;;;
2020/12/12 06:56:09;;;;;;;124.3;44.3;;;;;;;5.6;86.1;99230.0;;;;
2020/12/12 06:57:27;;;;;;;124.3;44.3;;;;;;;5.5;86.2;99230.0;;;;
2020/12/12 06:58:24;;;;;;;124.3;44.3;;;;;;;5.6;86.1;99230.0;;;;
2020/12/12 07:01:24;;;;;;;124.3;44.3;;;;;;;5.5;86.2;99240.0;;;;
2020/12/12 07:02:07;;;;;;;124.3;44.3;;;;;;;5.7;86.1;99230.0;;;;
2020/12/12 07:04:07;;;;;;;124.3;44.3;;;;;;;5.6;85.6;99240.0;;;;
2020/12/12 07:05:18;;;;;;;124.3;44.3;;;;;;;5.5;86.2;99240.0;;;;
2020/12/12 07:08:09;;;;;;;124.3;44.3;;;;;;;5.6;86.4;99240.0;;;;
2020/12/12 07:11:07;;;;;;;124.3;44.3;;;;;;;5.7;86.2;99240.0;;;;
2020/12/12 07:12:08;;;;;;;124.3;44.3;;;;;;;5.6;86.1;99240.0;;;;
2020/12/12 07:13:08;;;;;;;124.3;44.3;;;;;;;5.7;86.2;99250.0;;;;
2020/12/12 07:16:08;;;;;;;143.6;46.1;;;;;;;5.8;85.9;99250.0;;;;
2020/12/12 07:20:07;;;;;;;143.6;46.1;;;;;;;5.7;85.6;99250.0;;;;
2020/12/12 07:21:10;;;;;;;143.6;46.1;;;;;;;5.6;85.6;99250.0;;;;
2020/12/12 07:22:09;;;;;;;143.6;46.1;;;;;;;5.7;85.9;99260.0;;;;
2020/12/12 07:25:08;;;;;;;143.6;46.1;;;;;;;5.8;86.1;99260.0;;;;
2020/12/12 07:26:07;;;;;;;143.6;46.1;;;;;;;5.7;85.9;99260.0;;;;
2020/12/12 07:30:07;;;;;;;143.6;46.1;;;;;;;5.8;86.2;99270.0;;;;
2020/12/12 07:32:07;;;;;;;143.6;46.1;;;;;;;5.7;86.0;99270.0;;;;
2020/12/12 07:38:07;;;;;;;143.6;46.1;;;;;;;5.8;86.2;99280.0;;;;
2020/12/12 07:39:08;;;;;;;143.6;46.1;;;;;;;5.7;86.0;99280.0;;;;
2020/12/12 07:44:07;;;;;;;143.6;46.1;;;;;;;5.8;86.3;99290.0;;;;
2020/12/12 07:45:17;;;;;;;143.6;46.1;;;;;;;5.7;86.2;99280.0;;;;
2020/12/12 07:49:07;;;;;;;210.4;52.4;;;;;;;5.7;85.9;99290.0;;;;
2020/12/12 07:50:07;;;;;;;210.4;52.4;;;;;;;5.8;86.0;99290.0;;;;
2020/12/12 07:55:09;;;;;;;210.4;52.4;;;;;;;5.9;85.8;99300.0;;;;
2020/12/12 07:56:08;;;;;;;210.4;52.4;;;;;;;5.8;85.6;99300.0;;;;
2020/12/12 07:59:13;;;;;;;210.4;52.4;;;;;;;5.9;85.9;99310.0;;;;
2020/12/12 08:00:09;;;;;;;210.4;52.4;;;;;;;5.8;85.7;99300.0;;;;
2020/12/12 08:10:08;;;;;;;210.4;52.4;;;;;;;5.9;86.2;99320.0;;;;
2020/12/12 08:11:08;;;;;;;210.4;52.4;;;;;;;5.8;85.9;99320.0;;;;
2020/12/12 08:13:09;;;;;;;210.4;52.4;;;;;;;5.9;86.0;99320.0;;;;
2020/12/12 08:15:12;;;;;;;210.4;52.4;;;;;;;5.8;85.9;99320.0;;;;
2020/12/12 08:16:12;;;;;;;207.7;53.4;;;;;;;5.9;86.2;99320.0;;;;
2020/12/12 08:22:15;;;;;;;207.7;53.4;;;;;;;6.0;86.0;99340.0;;;;
2020/12/12 08:24:08;;;;;;;207.7;53.4;;;;;;;5.9;86.2;99340.0;;;;
2020/12/12 08:25:08;;;;;;;207.7;53.4;;;;;;;5.8;86.1;99340.0;;;;
2020/12/12 08:27:10;;;;;;;207.7;53.4;;;;;;;5.9;86.2;99340.0;;;;
2020/12/12 08:29:08;;;;;;;207.7;53.4;;;;;;;6.0;86.1;99340.0;;;;
2020/12/12 08:30:08;;;;;;;207.7;53.4;;;;;;;6.1;85.8;99340.0;;;;
2020/12/12 08:32:07;;;;;;;207.7;53.4;;;;;;;6.0;85.9;99350.0;;;;
2020/12/12 08:33:09;;;;;;;207.7;53.4;;;;;;;6.1;85.6;99350.0;;;;
2020/12/12 08:34:08;;;;;;;207.7;53.4;;;;;;;6.0;86.0;99350.0;;;;
2020/12/12 08:35:17;;;;;;;207.7;53.4;;;;;;;6.1;85.8;99350.0;;;;
2020/12/12 08:39:07;;;;;;;207.7;53.4;;;;;;;6.0;85.7;99360.0;;;;
2020/12/12 08:40:09;;;;;;;207.7;53.4;;;;;;;6.1;85.9;99360.0;;;;
2020/12/12 08:42:07;;;;;;;207.7;53.4;;;;;;;6.0;85.7;99370.0;;;;
2020/12/12 08:44:08;;;;;;;207.7;53.4;;;;;;;6.1;86.0;99370.0;;;;
2020/12/12 08:46:08;;;;;;;140.3;45.6;;;;;;;6.2;85.7;99370.0;;;;
2020/12/12 08:47:12;;;;;;;140.3;45.6;;;;;;;6.1;85.6;99370.0;;;;
2020/12/12 08:52:07;;;;;;;140.3;45.6;;;;;;;6.3;85.8;99380.0;;;;
2020/12/12 08:53:21;;;;;;;140.3;45.6;;;;;;;6.2;85.6;99380.0;;;;
2020/12/12 08:58:07;;;;;;;140.3;45.6;;;;;;;6.1;86.0;99380.0;;;;
2020/12/12 08:59:17;;;;;;;140.3;45.6;;;;;;;6.2;85.9;99380.0;;;;
2020/12/12 09:00:07;;;;;;;140.3;45.6;;;;;;;6.1;85.9;99380.0;;;;
2020/12/12 09:02:13;;;;;;;140.3;45.6;;;;;;;6.2;86.2;99390.0;;;;
2020/12/12 09:05:09;;;;;;;140.3;45.6;;;;;;;6.3;85.9;99390.0;;;;
2020/12/12 09:06:08;;;;;;;140.3;45.6;;;;;;;6.2;86.0;99390.0;;;;
2020/12/12 09:08:15;;;;;;;140.3;45.6;;;;;;;6.3;86.1;99390.0;;;;
2020/12/12 09:09:11;;;;;;;140.3;45.6;;;;;;;6.2;86.1;99390.0;;;;
2020/12/12 09:15:07;;;;;;;140.3;45.6;;;;;;;6.3;85.9;99410.0;;;;
2020/12/12 09:17:09;;;;;;;95.3;40.0;;;;;;;6.4;85.7;99410.0;;;;
2020/12/12 09:18:07;;;;;;;95.3;40.0;;;;;;;6.3;85.7;99410.0;;;;
2020/12/12 09:21:07;;;;;;;95.3;40.0;;;;;;;6.4;85.6;99410.0;;;;
2020/12/12 09:23:07;;;;;;;95.3;40.0;;;;;;;6.3;85.3;99420.0;;;;
2020/12/12 09:26:08;;;;;;;95.3;40.0;;;;;;;6.4;85.6;99430.0;;;;
2020/12/12 09:29:07;;;;;;;95.3;40.0;;;;;;;6.5;85.5;99430.0;;;;
2020/12/12 09:30:07;;;;;;;95.3;40.0;;;;;;;6.4;85.8;99430.0;;;;
2020/12/12 09:32:07;;;;;;;95.3;40.0;;;;;;;6.5;85.9;99430.0;;;;
2020/12/12 09:34:07;;;;;;;95.3;40.0;;;;;;;6.4;85.9;99440.0;;;;
2020/12/12 09:35:07;;;;;;;95.3;40.0;;;;;;;6.5;85.8;99440.0;;;;
2020/12/12 09:37:07;;;;;;;95.3;40.0;;;;;;;6.6;85.8;99450.0;;;;
2020/12/12 09:38:07;;;;;;;95.3;40.0;;;;;;;6.5;85.8;99450.0;;;;
2020/12/12 09:44:07;;;;;;;95.3;40.0;;;;;;;6.6;85.9;99450.0;;;;
2020/12/12 09:45:07;;;;;;;95.3;40.0;;;;;;;6.7;85.7;99450.0;;;;
2020/12/12 09:46:08;;;;;;;90.2;39.7;;;;;;;6.6;85.6;99450.0;;;;
2020/12/12 09:52:07;;;;;;;90.2;39.7;;;;;;;6.7;85.7;99450.0;;;;
2020/12/12 09:53:09;;;;;;;90.2;39.7;;;;;;;6.6;86.0;99460.0;;;;
2020/12/12 09:55:07;;;;;;;90.2;39.7;;;;;;;6.7;86.2;99460.0;;;;
2020/12/12 10:02:07;;;;;;;90.2;39.7;;;;;;;6.8;86.0;99470.0;;;;
2020/12/12 10:03:09;;;;;;;90.2;39.7;;;;;;;6.9;85.8;99470.0;;;;
2020/12/12 10:09:07;;;;;;;90.2;39.7;;;;;;;6.8;85.8;99480.0;;;;
2020/12/12 10:13:07;;;;;;;90.2;39.7;;;;;;;6.9;86.2;99480.0;;;;
2020/12/12 10:14:07;;;;;;;90.2;39.7;;;;;;;6.8;86.2;99480.0;;;;
2020/12/12 10:15:07;;;;;;;90.2;39.7;;;;;;;6.9;86.2;99480.0;;;;
2020/12/12 10:16:07;;;;;;;111.0;47.5;;;;;;;6.8;86.1;99480.0;;;;
2020/12/12 10:21:07;;;;;;;111.0;47.5;;;;;;;6.9;86.2;99490.0;;;;
2020/12/12 10:23:08;;;;;;;111.0;47.5;;;;;;;7.0;85.9;99490.0;;;;
2020/12/12 10:24:07;;;;;;;111.0;47.5;;;;;;;6.9;85.9;99490.0;;;;
2020/12/12 10:25:09;;;;;;;111.0;47.5;;;;;;;6.8;85.8;99500.0;;;;
2020/12/12 10:26:08;;;;;;;111.0;47.5;;;;;;;6.9;85.9;99500.0;;;;
2020/12/12 10:31:07;;;;;;;111.0;47.5;;;;;;;6.8;86.3;99500.0;;;;
2020/12/12 10:32:08;;;;;;;111.0;47.5;;;;;;;6.9;86.2;99500.0;;;;
2020/12/12 10:33:07;;;;;;;111.0;47.5;;;;;;;7.0;86.2;99500.0;;;;
2020/12/12 10:34:12;;;;;;;111.0;47.5;;;;;;;6.9;86.1;99500.0;;;;
2020/12/12 10:37:07;;;;;;;111.0;47.5;;;;;;;7.1;86.2;99500.0;;;;
2020/12/12 10:38:09;;;;;;;111.0;47.5;;;;;;;7.0;86.2;99500.0;;;;
2020/12/12 10:39:09;;;;;;;111.0;47.5;;;;;;;6.9;86.1;99510.0;;;;
2020/12/12 10:40:14;;;;;;;111.0;47.5;;;;;;;7.0;85.9;99510.0;;;;
2020/12/12 10:41:11;;;;;;;111.0;47.5;;;;;;;7.1;86.0;99510.0;;;;
2020/12/12 10:46:07;;;;;;;138.7;47.8;;;;;;;7.0;85.9;99510.0;;;;
2020/12/12 10:47:07;;;;;;;138.7;47.8;;;;;;;7.1;85.9;99510.0;;;;
2020/12/12 10:48:07;;;;;;;138.7;47.8;;;;;;;7.0;86.1;99510.0;;;;
2020/12/12 10:50:07;;;;;;;138.7;47.8;;;;;;;7.1;86.2;99510.0;;;;
2020/12/12 10:53:07;;;;;;;138.7;47.8;;;;;;;7.0;86.0;99520.0;;;;
2020/12/12 10:54:07;;;;;;;138.7;47.8;;;;;;;7.1;86.2;99520.0;;;;
2020/12/12 11:00:10;;;;;;;138.7;47.8;;;;;;;7.0;86.2;99520.0;;;;
2020/12/12 11:01:07;;;;;;;138.7;47.8;;;;;;;7.1;86.4;99520.0;;;;
2020/12/12 11:05:08;;;;;;;138.7;47.8;;;;;;;7.2;86.4;99520.0;;;;
2020/12/12 11:10:07;;;;;;;138.7;47.8;;;;;;;7.3;86.0;99520.0;;;;
2020/12/12 11:11:07;;;;;;;138.7;47.8;;;;;;;7.2;85.7;99520.0;;;;
2020/12/12 11:13:07;;;;;;;138.7;47.8;;;;;;;7.3;85.9;99520.0;;;;
2020/12/12 11:16:07;;;;;;;160.6;52.1;;;;;;;7.4;86.1;99520.0;;;;
2020/12/12 11:17:07;;;;;;;160.6;52.1;;;;;;;7.3;86.0;99530.0;;;;
2020/12/12 11:18:09;;;;;;;160.6;52.1;;;;;;;7.4;86.2;99530.0;;;;
2020/12/12 11:19:07;;;;;;;160.6;52.1;;;;;;;7.3;86.0;99520.0;;;;
2020/12/12 11:23:07;;;;;;;160.6;52.1;;;;;;;7.5;86.2;99530.0;;;;
2020/12/12 11:24:07;;;;;;;160.6;52.1;;;;;;;7.4;86.0;99530.0;;;;
2020/12/12 11:25:07;;;;;;;160.6;52.1;;;;;;;7.5;86.0;99530.0;;;;
2020/12/12 11:26:07;;;;;;;160.6;52.1;;;;;;;7.4;85.8;99530.0;;;;
2020/12/12 11:27:07;;;;;;;160.6;52.1;;;;;;;7.5;85.9;99530.0;;;;
2020/12/12 11:29:07;;;;;;;160.6;52.1;;;;;;;7.6;86.1;99540.0;;;;
2020/12/12 11:30:10;;;;;;;160.6;52.1;;;;;;;7.5;86.1;99540.0;;;;
2020/12/12 11:31:08;;;;;;;160.6;52.1;;;;;;;7.6;86.0;99540.0;;;;
2020/12/12 11:32:09;;;;;;;160.6;52.1;;;;;;;7.5;85.9;99540.0;;;;
2020/12/12 11:41:16;;;;;;;160.6;52.1;;;;;;;7.6;86.1;99550.0;;;;
2020/12/12 11:42:26;;;;;;;160.6;52.1;;;;;;;7.5;86.0;99550.0;;;;
2020/12/12 11:49:08;;;;;;;199.2;54.4;;;;;;;7.6;85.7;99550.0;;;;
2020/12/12 11:50:08;;;;;;;199.2;54.4;;;;;;;7.7;85.8;99550.0;;;;
2020/12/12 11:51:07;;;;;;;199.2;54.4;;;;;;;7.6;85.7;99550.0;;;;
2020/12/12 11:52:08;;;;;;;199.2;54.4;;;;;;;7.7;85.9;99560.0;;;;
2020/12/12 11:54:07;;;;;;;199.2;54.4;;;;;;;7.6;85.8;99560.0;;;;
2020/12/12 11:55:07;;;;;;;199.2;54.4;;;;;;;7.7;85.8;99560.0;;;;
2020/12/12 12:00:09;;;;;;;199.2;54.4;;;;;;;7.8;85.6;99570.0;;;;
2020/12/12 12:05:08;;;;;;;199.2;54.4;;;;;;;7.7;85.6;99580.0;;;;
2020/12/12 12:06:07;;;;;;;199.2;54.4;;;;;;;7.8;85.7;99570.0;;;;
2020/12/12 12:25:09;;;;;;;201.0;56.1;;;;;;;7.9;85.9;99580.0;;;;
2020/12/12 12:34:07;;;;;;;201.0;56.1;;;;;;;8.0;85.6;99590.0;;;;
2020/12/12 12:35:07;;;;;;;201.0;56.1;;;;;;;7.9;85.6;99600.0;;;;
2020/12/12 12:40:07;;;;;;;201.0;56.1;;;;;;;8.0;85.8;99600.0;;;;
2020/12/12 12:42:07;;;;;;;201.0;56.1;;;;;;;7.9;85.4;99610.0;;;;
2020/12/12 12:43:07;;;;;;;201.0;56.1;;;;;;;8.0;85.6;99600.0;;;;
2020/12/12 12:44:08;;;;;;;201.0;56.1;;;;;;;7.9;85.4;99610.0;;;;
2020/12/12 12:46:07;;;;;;;211.1;57.8;;;;;;;8.0;85.3;99610.0;;;;
2020/12/12 12:47:08;;;;;;;211.1;57.8;;;;;;;7.9;85.5;99610.0;;;;
2020/12/12 12:49:08;;;;;;;211.1;57.8;;;;;;;8.0;85.3;99610.0;;;;
2020/12/12 12:50:07;;;;;;;211.1;57.8;;;;;;;7.9;85.4;99610.0;;;;
2020/12/12 12:51:08;;;;;;;211.1;57.8;;;;;;;8.0;85.8;99610.0;;;;
2020/12/12 12:52:07;;;;;;;211.1;57.8;;;;;;;8.1;85.9;99610.0;;;;
2020/12/12 12:53:09;;;;;;;211.1;57.8;;;;;;;8.0;85.7;99610.0;;;;
2020/12/12 12:56:07;;;;;;;211.1;57.8;;;;;;;8.1;85.9;99620.0;;;;
2020/12/12 12:59:07;;;;;;;211.1;57.8;;;;;;;8.2;85.7;99620.0;;;;
2020/12/12 13:02:07;;;;;;;211.1;57.8;;;;;;;8.1;85.6;99620.0;;;;
2020/12/12 13:04:08;;;;;;;211.1;57.8;;;;;;;8.2;85.9;99620.0;;;;
2020/12/12 13:06:09;;;;;;;211.1;57.8;;;;;;;8.1;85.6;99630.0;;;;
2020/12/12 13:08:07;;;;;;;211.1;57.8;;;;;;;8.2;85.6;99630.0;;;;
2020/12/12 13:15:08;;;;;;;187.0;59.0;;;;;;;8.3;85.4;99640.0;;;;
2020/12/12 13:16:08;;;;;;;187.0;59.0;;;;;;;8.2;85.2;99640.0;;;;
2020/12/12 13:18:12;;;;;;;187.0;59.0;;;;;;;8.3;85.3;99640.0;;;;
2020/12/12 13:19:11;;;;;;;187.0;59.0;;;;;;;8.2;85.5;99640.0;;;;
2020/12/12 13:20:15;;;;;;;187.0;59.0;;;;;;;8.3;85.2;99640.0;;;;
2020/12/12 13:21:09;;;;;;;187.0;59.0;;;;;;;8.2;85.3;99640.0;;;;
2020/12/12 13:23:07;;;;;;;187.0;59.0;;;;;;;8.1;85.1;99640.0;;;;
2020/12/12 13:25:07;;;;;;;187.0;59.0;;;;;;;8.2;85.1;99650.0;;;;
2020/12/12 13:26:08;;;;;;;187.0;59.0;;;;;;;8.1;85.0;99650.0;;;;
2020/12/12 13:31:09;;;;;;;187.0;59.0;;;;;;;8.2;85.6;99650.0;;;;
2020/12/12 13:32:07;;;;;;;187.0;59.0;;;;;;;8.1;85.7;99650.0;;;;
2020/12/12 13:35:07;;;;;;;187.0;59.0;;;;;;;8.2;85.8;99660.0;;;;
2020/12/12 13:37:07;;;;;;;187.0;59.0;;;;;;;8.1;85.5;99660.0;;;;
2020/12/12 13:39:07;;;;;;;187.0;59.0;;;;;;;8.2;85.6;99660.0;;;;
2020/12/12 13:40:08;;;;;;;187.0;59.0;;;;;;;8.1;85.7;99660.0;;;;
2020/12/12 13:41:08;;;;;;;187.0;59.0;;;;;;;8.2;86.0;99660.0;;;;
2020/12/12 13:43:07;;;;;;;187.0;59.0;;;;;;;8.1;85.8;99660.0;;;;
2020/12/12 13:44:08;;;;;;;187.0;59.0;;;;;;;8.3;85.9;99660.0;;;;